LAX weather

Los Angeles International Airport
Los Angeles, California, United States

Public forecast

Using degrees Fahrenheit for public forecast. Weather courtesy of forecast.io.

METAR (pilot weather report)

Retrieved 2017/07/27 02:53 UTC (1 hour ago):

KLAX 270253Z 25007KT 10SM FEW012 21/18 A2995 RMK AO2 SLP140 T02060178 55000

TAF (pilot weather forecast)

Forecast is more than 12 hours old.

Retrieved 2017/07/26 00:00 UTC (1 day ago):

TAF KLAX 262358Z 2700/2806 26015KT P6SM SCT015 TEMPO 2700/2701 BKN015 FM270200 25008KT P6SM SKC FM270500 25005KT P6SM SCT007 FM270700 VRB03KT 5SM BR OVC005 FM271700 26006KT P6SM SCT010 FM272000 26012KT P6SM SCT010 FM280400 26008KT P6SM SCT010